sensor_id;sensor_type;location;lat;lon;timestamp;temperature;humidity
66312;HTU21D;53114;51.138;6.008;2023-07-31T00:00:56;17.74;118.99
66312;HTU21D;53114;51.138;6.008;2023-07-31T00:03:22;17.77;118.99
66312;HTU21D;53114;51.138;6.008;2023-07-31T00:05:48;17.75;118.99
66312;HTU21D;53114;51.138;6.008;2023-07-31T00:08:14;17.76;118.99
66312;HTU21D;53114;51.138;6.008;2023-07-31T00:10:40;17.77;118.99
66312;HTU21D;53114;51.138;6.008;2023-07-31T00:13:06;17.76;118.99
66312;HTU21D;53114;51.138;6.008;2023-07-31T00:15:32;17.75;118.99
66312;HTU21D;53114;51.138;6.008;2023-07-31T00:17:58;17.74;118.99
66312;HTU21D;53114;51.138;6.008;2023-07-31T00:20:24;17.74;118.99
66312;HTU21D;53114;51.138;6.008;2023-07-31T00:22:52;17.75;118.99
66312;HTU21D;53114;51.138;6.008;2023-07-31T00:25:18;17.77;118.99
66312;HTU21D;53114;51.138;6.008;2023-07-31T00:27:44;17.76;118.99
66312;HTU21D;53114;51.138;6.008;2023-07-31T00:30:12;17.75;118.99
66312;HTU21D;53114;51.138;6.008;2023-07-31T00:32:37;17.79;118.99
66312;HTU21D;53114;51.138;6.008;2023-07-31T00:35:04;17.80;118.99
66312;HTU21D;53114;51.138;6.008;2023-07-31T00:37:30;17.81;118.99
66312;HTU21D;53114;51.138;6.008;2023-07-31T00:39:56;17.81;118.99
66312;HTU21D;53114;51.138;6.008;2023-07-31T00:42:23;17.83;118.99
66312;HTU21D;53114;51.138;6.008;2023-07-31T00:44:48;17.84;118.99
66312;HTU21D;53114;51.138;6.008;2023-07-31T00:47:17;17.84;118.99
66312;HTU21D;53114;51.138;6.008;2023-07-31T00:49:44;17.83;118.99
66312;HTU21D;53114;51.138;6.008;2023-07-31T00:52:10;17.81;118.99
66312;HTU21D;53114;51.138;6.008;2023-07-31T00:54:36;17.77;118.99
66312;HTU21D;53114;51.138;6.008;2023-07-31T00:57:02;17.73;118.99
66312;HTU21D;53114;51.138;6.008;2023-07-31T00:59:31;17.67;118.99
66312;HTU21D;53114;51.138;6.008;2023-07-31T01:01:57;17.65;118.99
66312;HTU21D;53114;51.138;6.008;2023-07-31T01:04:23;17.63;118.99
66312;HTU21D;53114;51.138;6.008;2023-07-31T01:07:17;17.58;118.99
66312;HTU21D;53114;51.138;6.008;2023-07-31T01:10:03;17.56;118.99
66312;HTU21D;53114;51.138;6.008;2023-07-31T01:12:31;17.56;118.99
66312;HTU21D;53114;51.138;6.008;2023-07-31T01:15:07;17.59;118.99
66312;HTU21D;53114;51.138;6.008;2023-07-31T01:17:41;17.62;118.99
66312;HTU21D;53114;51.138;6.008;2023-07-31T01:20:27;17.64;118.99
66312;HTU21D;53114;51.138;6.008;2023-07-31T01:26:24;17.66;118.99
66312;HTU21D;53114;51.138;6.008;2023-07-31T01:29:00;17.72;118.99
66312;HTU21D;53114;51.138;6.008;2023-07-31T01:31:29;17.74;118.99
66312;HTU21D;53114;51.138;6.008;2023-07-31T01:34:00;17.74;118.99
66312;HTU21D;53114;51.138;6.008;2023-07-31T01:36:27;17.77;118.99
66312;HTU21D;53114;51.138;6.008;2023-07-31T01:39:01;17.77;118.99
66312;HTU21D;53114;51.138;6.008;2023-07-31T01:41:28;17.80;118.99
66312;HTU21D;53114;51.138;6.008;2023-07-31T01:43:53;17.82;118.99
66312;HTU21D;53114;51.138;6.008;2023-07-31T01:46:19;17.84;118.99
66312;HTU21D;53114;51.138;6.008;2023-07-31T01:48:45;17.84;118.99
66312;HTU21D;53114;51.138;6.008;2023-07-31T01:51:11;17.85;118.99
66312;HTU21D;53114;51.138;6.008;2023-07-31T01:53:37;17.87;118.99
66312;HTU21D;53114;51.138;6.008;2023-07-31T01:56:03;17.87;118.99
66312;HTU21D;53114;51.138;6.008;2023-07-31T01:58:30;17.89;118.99
66312;HTU21D;53114;51.138;6.008;2023-07-31T02:00:56;17.91;118.99
66312;HTU21D;53114;51.138;6.008;2023-07-31T02:03:22;17.94;118.99
66312;HTU21D;53114;51.138;6.008;2023-07-31T02:05:49;17.95;118.99
66312;HTU21D;53114;51.138;6.008;2023-07-31T02:08:19;17.97;118.99
66312;HTU21D;53114;51.138;6.008;2023-07-31T02:10:45;17.97;118.99
66312;HTU21D;53114;51.138;6.008;2023-07-31T02:13:11;17.99;118.99
66312;HTU21D;53114;51.138;6.008;2023-07-31T02:15:37;18.03;118.99
66312;HTU21D;53114;51.138;6.008;2023-07-31T02:18:03;18.05;118.99
66312;HTU21D;53114;51.138;6.008;2023-07-31T02:20:33;18.08;118.99
66312;HTU21D;53114;51.138;6.008;2023-07-31T02:22:59;18.08;118.99
66312;HTU21D;53114;51.138;6.008;2023-07-31T02:25:25;18.10;118.99
66312;HTU21D;53114;51.138;6.008;2023-07-31T02:27:51;18.12;118.99
66312;HTU21D;53114;51.138;6.008;2023-07-31T02:30:17;18.15;118.99
66312;HTU21D;53114;51.138;6.008;2023-07-31T02:32:43;18.17;118.99
66312;HTU21D;53114;51.138;6.008;2023-07-31T02:35:09;18.15;118.99
66312;HTU21D;53114;51.138;6.008;2023-07-31T02:37:39;18.17;118.99
66312;HTU21D;53114;51.138;6.008;2023-07-31T02:40:05;18.19;118.99
66312;HTU21D;53114;51.138;6.008;2023-07-31T02:42:31;18.19;118.99
66312;HTU21D;53114;51.138;6.008;2023-07-31T02:44:57;18.21;118.99
66312;HTU21D;53114;51.138;6.008;2023-07-31T02:47:23;18.21;118.99
66312;HTU21D;53114;51.138;6.008;2023-07-31T02:49:50;18.20;118.99
66312;HTU21D;53114;51.138;6.008;2023-07-31T02:52:16;18.23;118.99
66312;HTU21D;53114;51.138;6.008;2023-07-31T02:54:42;18.23;118.99
66312;HTU21D;53114;51.138;6.008;2023-07-31T02:57:08;18.23;118.99
66312;HTU21D;53114;51.138;6.008;2023-07-31T02:59:34;18.23;118.99
66312;HTU21D;53114;51.138;6.008;2023-07-31T03:02:00;18.23;118.99
66312;HTU21D;53114;51.138;6.008;2023-07-31T03:04:26;18.21;118.99
66312;HTU21D;53114;51.138;6.008;2023-07-31T03:06:52;18.24;118.99
66312;HTU21D;53114;51.138;6.008;2023-07-31T03:09:19;18.25;118.99
66312;HTU21D;53114;51.138;6.008;2023-07-31T03:11:44;18.26;118.99
66312;HTU21D;53114;51.138;6.008;2023-07-31T03:14:10;18.27;118.99
66312;HTU21D;53114;51.138;6.008;2023-07-31T03:16:36;18.29;118.99
66312;HTU21D;53114;51.138;6.008;2023-07-31T03:19:02;18.32;118.99
66312;HTU21D;53114;51.138;6.008;2023-07-31T03:21:28;18.34;118.99
66312;HTU21D;53114;51.138;6.008;2023-07-31T03:23:54;18.37;118.99
66312;HTU21D;53114;51.138;6.008;2023-07-31T03:26:20;18.36;118.99
66312;HTU21D;53114;51.138;6.008;2023-07-31T03:28:46;18.37;118.99
66312;HTU21D;53114;51.138;6.008;2023-07-31T03:31:12;18.40;118.99
66312;HTU21D;53114;51.138;6.008;2023-07-31T03:33:38;18.40;118.99
66312;HTU21D;53114;51.138;6.008;2023-07-31T03:36:04;18.40;118.99
66312;HTU21D;53114;51.138;6.008;2023-07-31T03:38:31;18.42;118.99
66312;HTU21D;53114;51.138;6.008;2023-07-31T03:40:57;18.42;118.99
66312;HTU21D;53114;51.138;6.008;2023-07-31T03:43:26;18.41;118.99
66312;HTU21D;53114;51.138;6.008;2023-07-31T03:45:53;18.41;118.99
66312;HTU21D;53114;51.138;6.008;2023-07-31T03:48:22;18.42;118.99
66312;HTU21D;53114;51.138;6.008;2023-07-31T03:50:47;18.43;118.99
66312;HTU21D;53114;51.138;6.008;2023-07-31T03:53:14;18.42;118.99
66312;HTU21D;53114;51.138;6.008;2023-07-31T03:55:40;18.43;118.99
66312;HTU21D;53114;51.138;6.008;2023-07-31T03:58:06;18.42;118.99
66312;HTU21D;53114;51.138;6.008;2023-07-31T04:00:32;18.43;118.99
66312;HTU21D;53114;51.138;6.008;2023-07-31T04:02:58;18.44;118.99
66312;HTU21D;53114;51.138;6.008;2023-07-31T04:05:24;18.44;118.99
66312;HTU21D;53114;51.138;6.008;2023-07-31T04:07:50;18.48;118.99
66312;HTU21D;53114;51.138;6.008;2023-07-31T04:10:17;18.50;118.99
66312;HTU21D;53114;51.138;6.008;2023-07-31T04:12:46;18.50;118.99
66312;HTU21D;53114;51.138;6.008;2023-07-31T04:15:12;18.52;118.99
66312;HTU21D;53114;51.138;6.008;2023-07-31T04:17:38;18.52;118.99
66312;HTU21D;53114;51.138;6.008;2023-07-31T04:20:04;18.55;118.99
66312;HTU21D;53114;51.138;6.008;2023-07-31T04:22:30;18.57;118.99
66312;HTU21D;53114;51.138;6.008;2023-07-31T04:24:56;18.59;118.99
66312;HTU21D;53114;51.138;6.008;2023-07-31T04:27:22;18.58;118.99
66312;HTU21D;53114;51.138;6.008;2023-07-31T04:29:48;18.59;118.99
66312;HTU21D;53114;51.138;6.008;2023-07-31T04:32:17;18.62;118.99
66312;HTU21D;53114;51.138;6.008;2023-07-31T04:34:43;18.61;118.99
66312;HTU21D;53114;51.138;6.008;2023-07-31T04:37:09;18.63;118.99
66312;HTU21D;53114;51.138;6.008;2023-07-31T04:39:35;18.63;118.99
66312;HTU21D;53114;51.138;6.008;2023-07-31T04:42:01;18.66;118.99
66312;HTU21D;53114;51.138;6.008;2023-07-31T04:44:27;18.68;118.99
66312;HTU21D;53114;51.138;6.008;2023-07-31T04:46:53;18.71;118.99
66312;HTU21D;53114;51.138;6.008;2023-07-31T04:49:19;18.72;118.99
66312;HTU21D;53114;51.138;6.008;2023-07-31T04:51:47;18.74;118.99
66312;HTU21D;53114;51.138;6.008;2023-07-31T04:54:13;18.74;118.99
66312;HTU21D;53114;51.138;6.008;2023-07-31T04:56:42;18.77;118.99
66312;HTU21D;53114;51.138;6.008;2023-07-31T04:59:08;18.77;118.99
66312;HTU21D;53114;51.138;6.008;2023-07-31T05:01:34;18.77;118.99
66312;HTU21D;53114;51.138;6.008;2023-07-31T05:04:03;18.78;118.99
66312;HTU21D;53114;51.138;6.008;2023-07-31T05:06:29;18.76;118.99
66312;HTU21D;53114;51.138;6.008;2023-07-31T05:08:55;18.79;118.99
66312;HTU21D;53114;51.138;6.008;2023-07-31T05:11:21;18.78;118.99
66312;HTU21D;53114;51.138;6.008;2023-07-31T05:13:47;18.78;118.99
66312;HTU21D;53114;51.138;6.008;2023-07-31T05:16:13;18.78;118.99
66312;HTU21D;53114;51.138;6.008;2023-07-31T05:18:41;18.76;118.99
66312;HTU21D;53114;51.138;6.008;2023-07-31T05:21:10;18.70;118.99
66312;HTU21D;53114;51.138;6.008;2023-07-31T05:23:36;18.67;118.99
66312;HTU21D;53114;51.138;6.008;2023-07-31T05:26:05;18.55;118.99
66312;HTU21D;53114;51.138;6.008;2023-07-31T05:28:37;18.52;118.99
66312;HTU21D;53114;51.138;6.008;2023-07-31T05:31:04;18.48;118.99
66312;HTU21D;53114;51.138;6.008;2023-07-31T05:33:31;18.48;118.99
66312;HTU21D;53114;51.138;6.008;2023-07-31T05:35:59;18.49;118.99
66312;HTU21D;53114;51.138;6.008;2023-07-31T05:38:25;18.49;118.99
66312;HTU21D;53114;51.138;6.008;2023-07-31T05:40:51;18.49;118.99
66312;HTU21D;53114;51.138;6.008;2023-07-31T05:43:17;18.47;118.99
66312;HTU21D;53114;51.138;6.008;2023-07-31T05:45:43;18.43;118.99
66312;HTU21D;53114;51.138;6.008;2023-07-31T05:48:09;18.41;118.99
66312;HTU21D;53114;51.138;6.008;2023-07-31T05:50:38;18.35;118.99
66312;HTU21D;53114;51.138;6.008;2023-07-31T05:53:06;18.35;118.99
66312;HTU21D;53114;51.138;6.008;2023-07-31T05:55:33;18.36;118.99
66312;HTU21D;53114;51.138;6.008;2023-07-31T05:57:59;18.36;118.99
66312;HTU21D;53114;51.138;6.008;2023-07-31T06:00:25;18.37;118.99
66312;HTU21D;53114;51.138;6.008;2023-07-31T06:02:51;18.41;118.99
66312;HTU21D;53114;51.138;6.008;2023-07-31T06:05:20;18.44;118.99
66312;HTU21D;53114;51.138;6.008;2023-07-31T06:07:46;18.48;118.99
66312;HTU21D;53114;51.138;6.008;2023-07-31T06:10:12;18.52;118.99
66312;HTU21D;53114;51.138;6.008;2023-07-31T06:12:40;18.52;118.99
66312;HTU21D;53114;51.138;6.008;2023-07-31T06:15:08;18.52;118.99
66312;HTU21D;53114;51.138;6.008;2023-07-31T06:17:36;18.50;118.99
66312;HTU21D;53114;51.138;6.008;2023-07-31T06:20:06;18.52;118.99
66312;HTU21D;53114;51.138;6.008;2023-07-31T06:22:35;18.53;118.99
66312;HTU21D;53114;51.138;6.008;2023-07-31T06:25:03;18.48;118.99
66312;HTU21D;53114;51.138;6.008;2023-07-31T06:27:29;18.44;118.99
66312;HTU21D;53114;51.138;6.008;2023-07-31T06:29:55;18.46;118.99
66312;HTU21D;53114;51.138;6.008;2023-07-31T06:32:23;18.44;118.99
66312;HTU21D;53114;51.138;6.008;2023-07-31T06:34:49;18.46;118.99
66312;HTU21D;53114;51.138;6.008;2023-07-31T06:37:16;18.47;118.99
66312;HTU21D;53114;51.138;6.008;2023-07-31T06:39:42;18.48;118.99
66312;HTU21D;53114;51.138;6.008;2023-07-31T06:42:08;18.46;118.99
66312;HTU21D;53114;51.138;6.008;2023-07-31T06:44:34;18.44;118.99
66312;HTU21D;53114;51.138;6.008;2023-07-31T06:46:59;18.42;118.99
66312;HTU21D;53114;51.138;6.008;2023-07-31T06:49:25;18.42;118.99
66312;HTU21D;53114;51.138;6.008;2023-07-31T06:51:51;18.40;118.99
66312;HTU21D;53114;51.138;6.008;2023-07-31T06:54:17;18.34;118.99
66312;HTU21D;53114;51.138;6.008;2023-07-31T06:56:43;18.27;118.99
66312;HTU21D;53114;51.138;6.008;2023-07-31T06:59:09;18.21;118.99
66312;HTU21D;53114;51.138;6.008;2023-07-31T07:01:35;18.17;118.99
66312;HTU21D;53114;51.138;6.008;2023-07-31T07:04:01;18.13;118.99
66312;HTU21D;53114;51.138;6.008;2023-07-31T07:06:27;18.13;118.99
66312;HTU21D;53114;51.138;6.008;2023-07-31T07:08:53;18.14;118.99
66312;HTU21D;53114;51.138;6.008;2023-07-31T07:11:19;18.15;118.99
66312;HTU21D;53114;51.138;6.008;2023-07-31T07:13:45;18.11;118.99
66312;HTU21D;53114;51.138;6.008;2023-07-31T07:16:11;18.07;118.99
66312;HTU21D;53114;51.138;6.008;2023-07-31T07:18:37;18.03;118.99
66312;HTU21D;53114;51.138;6.008;2023-07-31T07:21:03;18.04;118.99
66312;HTU21D;53114;51.138;6.008;2023-07-31T07:23:31;18.04;118.99
66312;HTU21D;53114;51.138;6.008;2023-07-31T07:26:01;18.08;118.99
66312;HTU21D;53114;51.138;6.008;2023-07-31T07:28:27;18.10;118.99
66312;HTU21D;53114;51.138;6.008;2023-07-31T07:30:54;18.14;118.99
66312;HTU21D;53114;51.138;6.008;2023-07-31T07:33:23;18.19;118.99
66312;HTU21D;53114;51.138;6.008;2023-07-31T07:35:52;18.22;118.99
66312;HTU21D;53114;51.138;6.008;2023-07-31T07:38:18;18.18;118.99
66312;HTU21D;53114;51.138;6.008;2023-07-31T07:40:44;18.13;118.99
66312;HTU21D;53114;51.138;6.008;2023-07-31T07:43:12;18.08;118.99
66312;HTU21D;53114;51.138;6.008;2023-07-31T07:45:39;18.11;118.99
66312;HTU21D;53114;51.138;6.008;2023-07-31T07:48:05;18.10;118.99
66312;HTU21D;53114;51.138;6.008;2023-07-31T07:50:31;18.10;118.99
66312;HTU21D;53114;51.138;6.008;2023-07-31T07:53:01;18.10;118.99
66312;HTU21D;53114;51.138;6.008;2023-07-31T07:55:27;18.14;118.99
66312;HTU21D;53114;51.138;6.008;2023-07-31T07:57:53;18.22;118.99
66312;HTU21D;53114;51.138;6.008;2023-07-31T08:00:19;18.28;118.99
66312;HTU21D;53114;51.138;6.008;2023-07-31T08:02:45;18.32;118.99
66312;HTU21D;53114;51.138;6.008;2023-07-31T08:05:11;18.38;118.99
66312;HTU21D;53114;51.138;6.008;2023-07-31T08:07:36;18.44;118.99
66312;HTU21D;53114;51.138;6.008;2023-07-31T08:10:03;18.53;118.99
66312;HTU21D;53114;51.138;6.008;2023-07-31T08:12:30;18.65;118.99
66312;HTU21D;53114;51.138;6.008;2023-07-31T08:14:56;18.78;118.99
66312;HTU21D;53114;51.138;6.008;2023-07-31T08:17:22;18.79;118.99
66312;HTU21D;53114;51.138;6.008;2023-07-31T08:19:48;18.79;118.99
66312;HTU21D;53114;51.138;6.008;2023-07-31T08:22:14;18.70;118.99
66312;HTU21D;53114;51.138;6.008;2023-07-31T08:24:40;18.67;118.99
66312;HTU21D;53114;51.138;6.008;2023-07-31T08:27:07;18.58;118.99
66312;HTU21D;53114;51.138;6.008;2023-07-31T08:29:33;18.48;118.99
66312;HTU21D;53114;51.138;6.008;2023-07-31T08:31:59;18.41;118.99
66312;HTU21D;53114;51.138;6.008;2023-07-31T08:34:25;18.42;118.99
66312;HTU21D;53114;51.138;6.008;2023-07-31T08:36:51;18.52;118.99
66312;HTU21D;53114;51.138;6.008;2023-07-31T08:39:17;18.57;118.99
66312;HTU21D;53114;51.138;6.008;2023-07-31T08:41:42;18.62;118.99
66312;HTU21D;53114;51.138;6.008;2023-07-31T08:44:10;18.66;118.99
66312;HTU21D;53114;51.138;6.008;2023-07-31T08:46:39;18.71;118.99
66312;HTU21D;53114;51.138;6.008;2023-07-31T08:49:07;18.72;118.99
66312;HTU21D;53114;51.138;6.008;2023-07-31T08:51:39;18.76;118.99
66312;HTU21D;53114;51.138;6.008;2023-07-31T08:54:06;18.84;118.99
66312;HTU21D;53114;51.138;6.008;2023-07-31T08:56:32;18.84;118.99
66312;HTU21D;53114;51.138;6.008;2023-07-31T08:59:02;18.84;118.99
66312;HTU21D;53114;51.138;6.008;2023-07-31T09:01:34;18.86;118.99
66312;HTU21D;53114;51.138;6.008;2023-07-31T09:04:04;18.92;118.99
66312;HTU21D;53114;51.138;6.008;2023-07-31T09:06:40;18.92;118.99
66312;HTU21D;53114;51.138;6.008;2023-07-31T09:09:07;18.98;118.99
66312;HTU21D;53114;51.138;6.008;2023-07-31T09:11:37;19.03;118.99
66312;HTU21D;53114;51.138;6.008;2023-07-31T09:14:03;19.07;118.99
66312;HTU21D;53114;51.138;6.008;2023-07-31T09:16:34;19.05;118.99
66312;HTU21D;53114;51.138;6.008;2023-07-31T09:19:01;19.00;118.99
66312;HTU21D;53114;51.138;6.008;2023-07-31T09:21:30;18.91;118.99
66312;HTU21D;53114;51.138;6.008;2023-07-31T09:23:57;18.83;118.99
66312;HTU21D;53114;51.138;6.008;2023-07-31T09:26:34;18.78;118.99
66312;HTU21D;53114;51.138;6.008;2023-07-31T09:29:03;18.78;118.99
66312;HTU21D;53114;51.138;6.008;2023-07-31T09:33:59;18.80;118.99
66312;HTU21D;53114;51.138;6.008;2023-07-31T09:36:29;18.85;118.99
66312;HTU21D;53114;51.138;6.008;2023-07-31T09:39:02;18.93;118.99
66312;HTU21D;53114;51.138;6.008;2023-07-31T09:41:28;19.00;118.99
66312;HTU21D;53114;51.138;6.008;2023-07-31T09:43:54;19.02;118.99
66312;HTU21D;53114;51.138;6.008;2023-07-31T09:46:21;19.03;118.99
66312;HTU21D;53114;51.138;6.008;2023-07-31T09:48:47;19.08;118.99
66312;HTU21D;53114;51.138;6.008;2023-07-31T09:51:13;19.11;118.99
66312;HTU21D;53114;51.138;6.008;2023-07-31T09:53:39;19.18;118.99
66312;HTU21D;53114;51.138;6.008;2023-07-31T09:56:05;19.29;118.99
66312;HTU21D;53114;51.138;6.008;2023-07-31T09:58:38;19.39;118.99
66312;HTU21D;53114;51.138;6.008;2023-07-31T10:01:04;19.47;118.99
66312;HTU21D;53114;51.138;6.008;2023-07-31T10:03:31;19.56;118.99
66312;HTU21D;53114;51.138;6.008;2023-07-31T10:06:01;19.63;118.99
66312;HTU21D;53114;51.138;6.008;2023-07-31T10:08:30;19.65;118.99
66312;HTU21D;53114;51.138;6.008;2023-07-31T10:11:01;19.68;118.99
66312;HTU21D;53114;51.138;6.008;2023-07-31T10:13:32;19.62;118.99
66312;HTU21D;53114;51.138;6.008;2023-07-31T10:16:00;19.66;118.99
66312;HTU21D;53114;51.138;6.008;2023-07-31T10:18:27;19.70;118.99
66312;HTU21D;53114;51.138;6.008;2023-07-31T10:20:57;19.71;118.99
66312;HTU21D;53114;51.138;6.008;2023-07-31T10:23:24;19.67;118.99
66312;HTU21D;53114;51.138;6.008;2023-07-31T10:25:53;19.72;118.99
66312;HTU21D;53114;51.138;6.008;2023-07-31T10:28:20;19.75;118.99
66312;HTU21D;53114;51.138;6.008;2023-07-31T10:30:47;19.82;118.99
66312;HTU21D;53114;51.138;6.008;2023-07-31T10:33:15;19.85;118.99
66312;HTU21D;53114;51.138;6.008;2023-07-31T10:35:42;19.88;118.99
66312;HTU21D;53114;51.138;6.008;2023-07-31T10:38:12;19.97;118.99
66312;HTU21D;53114;51.138;6.008;2023-07-31T10:40:41;20.07;118.99
66312;HTU21D;53114;51.138;6.008;2023-07-31T10:43:07;20.13;118.99
66312;HTU21D;53114;51.138;6.008;2023-07-31T10:45:42;20.10;118.99
66312;HTU21D;53114;51.138;6.008;2023-07-31T10:48:16;20.07;118.99
66312;HTU21D;53114;51.138;6.008;2023-07-31T10:50:54;20.06;118.99
66312;HTU21D;53114;51.138;6.008;2023-07-31T10:53:32;20.10;118.99
66312;HTU21D;53114;51.138;6.008;2023-07-31T10:56:24;20.13;118.99
66312;HTU21D;53114;51.138;6.008;2023-07-31T10:59:01;20.17;118.99
66312;HTU21D;53114;51.138;6.008;2023-07-31T11:01:54;20.20;118.99
66312;HTU21D;53114;51.138;6.008;2023-07-31T11:04:27;20.15;118.99
66312;HTU21D;53114;51.138;6.008;2023-07-31T11:07:01;20.07;118.99
66312;HTU21D;53114;51.138;6.008;2023-07-31T11:09:32;20.06;118.99
66312;HTU21D;53114;51.138;6.008;2023-07-31T11:12:03;20.11;118.99
66312;HTU21D;53114;51.138;6.008;2023-07-31T11:14:30;20.34;118.99
66312;HTU21D;53114;51.138;6.008;2023-07-31T11:16:55;20.54;118.99
66312;HTU21D;53114;51.138;6.008;2023-07-31T11:19:25;20.68;118.99
66312;HTU21D;53114;51.138;6.008;2023-07-31T11:21:56;20.83;118.99
66312;HTU21D;53114;51.138;6.008;2023-07-31T11:24:22;20.89;118.99
66312;HTU21D;53114;51.138;6.008;2023-07-31T11:26:52;20.88;118.99
66312;HTU21D;53114;51.138;6.008;2023-07-31T11:29:20;20.87;118.99
66312;HTU21D;53114;51.138;6.008;2023-07-31T11:31:47;20.83;118.99
66312;HTU21D;53114;51.138;6.008;2023-07-31T11:34:14;20.68;118.99
66312;HTU21D;53114;51.138;6.008;2023-07-31T11:36:40;20.45;118.99
66312;HTU21D;53114;51.138;6.008;2023-07-31T11:39:10;20.34;118.99
66312;HTU21D;53114;51.138;6.008;2023-07-31T11:41:40;20.31;118.99
66312;HTU21D;53114;51.138;6.008;2023-07-31T11:44:06;20.27;118.99
66312;HTU21D;53114;51.138;6.008;2023-07-31T11:46:32;20.30;118.99
66312;HTU21D;53114;51.138;6.008;2023-07-31T11:49:01;20.36;118.99
66312;HTU21D;53114;51.138;6.008;2023-07-31T11:51:29;20.42;118.99
66312;HTU21D;53114;51.138;6.008;2023-07-31T11:54:00;20.44;118.99
66312;HTU21D;53114;51.138;6.008;2023-07-31T11:56:27;20.45;118.99
66312;HTU21D;53114;51.138;6.008;2023-07-31T11:58:58;20.45;118.99
66312;HTU21D;53114;51.138;6.008;2023-07-31T12:01:26;20.39;118.99
66312;HTU21D;53114;51.138;6.008;2023-07-31T12:03:53;20.48;118.99
66312;HTU21D;53114;51.138;6.008;2023-07-31T12:06:32;20.60;118.99
66312;HTU21D;53114;51.138;6.008;2023-07-31T12:09:04;20.60;118.99
66312;HTU21D;53114;51.138;6.008;2023-07-31T12:11:30;20.48;118.99
66312;HTU21D;53114;51.138;6.008;2023-07-31T12:13:56;20.45;118.99
66312;HTU21D;53114;51.138;6.008;2023-07-31T12:16:26;20.50;118.99
66312;HTU21D;53114;51.138;6.008;2023-07-31T12:18:54;20.54;118.99
66312;HTU21D;53114;51.138;6.008;2023-07-31T12:21:21;20.54;118.99
66312;HTU21D;53114;51.138;6.008;2023-07-31T12:23:47;20.54;118.99
66312;HTU21D;53114;51.138;6.008;2023-07-31T12:26:16;20.56;118.99
66312;HTU21D;53114;51.138;6.008;2023-07-31T12:28:44;20.60;118.99
66312;HTU21D;53114;51.138;6.008;2023-07-31T12:31:15;20.64;118.99
66312;HTU21D;53114;51.138;6.008;2023-07-31T12:33:44;20.70;118.99
66312;HTU21D;53114;51.138;6.008;2023-07-31T12:36:21;20.84;118.99
66312;HTU21D;53114;51.138;6.008;2023-07-31T12:38:48;21.01;118.99
66312;HTU21D;53114;51.138;6.008;2023-07-31T12:41:15;21.19;118.99
66312;HTU21D;53114;51.138;6.008;2023-07-31T12:43:43;21.32;118.99
66312;HTU21D;53114;51.138;6.008;2023-07-31T12:46:12;21.52;118.99
66312;HTU21D;53114;51.138;6.008;2023-07-31T12:48:39;21.77;118.99
66312;HTU21D;53114;51.138;6.008;2023-07-31T12:51:06;21.95;118.99
66312;HTU21D;53114;51.138;6.008;2023-07-31T12:53:33;22.09;118.99
66312;HTU21D;53114;51.138;6.008;2023-07-31T12:55:59;22.23;118.99
66312;HTU21D;53114;51.138;6.008;2023-07-31T12:58:25;22.34;118.99
66312;HTU21D;53114;51.138;6.008;2023-07-31T13:00:51;22.46;118.99
66312;HTU21D;53114;51.138;6.008;2023-07-31T13:03:17;22.57;118.99
66312;HTU21D;53114;51.138;6.008;2023-07-31T13:05:43;22.73;117.50
66312;HTU21D;53114;51.138;6.008;2023-07-31T13:08:12;22.92;116.28
66312;HTU21D;53114;51.138;6.008;2023-07-31T13:10:37;23.06;114.93
66312;HTU21D;53114;51.138;6.008;2023-07-31T13:13:03;23.03;113.63
66312;HTU21D;53114;51.138;6.008;2023-07-31T13:15:29;22.97;113.33
66312;HTU21D;53114;51.138;6.008;2023-07-31T13:17:56;22.97;112.71
66312;HTU21D;53114;51.138;6.008;2023-07-31T13:20:22;23.16;113.16
66312;HTU21D;53114;51.138;6.008;2023-07-31T13:22:48;23.35;112.03
66312;HTU21D;53114;51.138;6.008;2023-07-31T13:25:14;23.34;109.76
66312;HTU21D;53114;51.138;6.008;2023-07-31T13:27:40;23.08;108.30
66312;HTU21D;53114;51.138;6.008;2023-07-31T13:30:06;22.76;109.45
66312;HTU21D;53114;51.138;6.008;2023-07-31T13:32:32;22.50;110.67
66312;HTU21D;53114;51.138;6.008;2023-07-31T13:34:58;22.35;111.65
66312;HTU21D;53114;51.138;6.008;2023-07-31T13:37:24;22.20;113.02
66312;HTU21D;53114;51.138;6.008;2023-07-31T13:39:50;22.06;113.45
66312;HTU21D;53114;51.138;6.008;2023-07-31T13:42:16;21.91;114.44
66312;HTU21D;53114;51.138;6.008;2023-07-31T13:44:42;21.74;115.38
66312;HTU21D;53114;51.138;6.008;2023-07-31T13:47:09;21.64;115.80
66312;HTU21D;53114;51.138;6.008;2023-07-31T13:49:35;21.60;116.76
66312;HTU21D;53114;51.138;6.008;2023-07-31T13:52:02;21.57;117.55
66312;HTU21D;53114;51.138;6.008;2023-07-31T13:54:28;21.55;118.03
66312;HTU21D;53114;51.138;6.008;2023-07-31T13:56:54;21.53;118.35
66312;HTU21D;53114;51.138;6.008;2023-07-31T13:59:20;21.50;117.69
66312;HTU21D;53114;51.138;6.008;2023-07-31T14:01:46;21.46;117.99
66312;HTU21D;53114;51.138;6.008;2023-07-31T14:04:13;21.45;118.12
66312;HTU21D;53114;51.138;6.008;2023-07-31T14:06:39;21.50;118.99
66312;HTU21D;53114;51.138;6.008;2023-07-31T14:09:06;21.54;118.75
66312;HTU21D;53114;51.138;6.008;2023-07-31T14:11:32;21.59;118.71
66312;HTU21D;53114;51.138;6.008;2023-07-31T14:13:58;21.58;118.06
66312;HTU21D;53114;51.138;6.008;2023-07-31T14:16:24;21.61;118.61
66312;HTU21D;53114;51.138;6.008;2023-07-31T14:18:50;21.73;118.56
66312;HTU21D;53114;51.138;6.008;2023-07-31T14:21:16;21.81;117.91
66312;HTU21D;53114;51.138;6.008;2023-07-31T14:23:42;21.87;116.59
66312;HTU21D;53114;51.138;6.008;2023-07-31T14:26:08;21.88;116.18
66312;HTU21D;53114;51.138;6.008;2023-07-31T14:28:34;21.82;116.22
66312;HTU21D;53114;51.138;6.008;2023-07-31T14:31:00;21.81;115.77
66312;HTU21D;53114;51.138;6.008;2023-07-31T14:33:27;21.77;112.29
66312;HTU21D;53114;51.138;6.008;2023-07-31T14:35:53;21.76;115.43
66312;HTU21D;53114;51.138;6.008;2023-07-31T14:38:19;21.72;115.43
66312;HTU21D;53114;51.138;6.008;2023-07-31T14:40:46;21.66;115.00
66312;HTU21D;53114;51.138;6.008;2023-07-31T14:43:12;21.58;115.56
66312;HTU21D;53114;51.138;6.008;2023-07-31T14:45:38;21.52;116.11
66312;HTU21D;53114;51.138;6.008;2023-07-31T14:48:04;21.46;116.18
66312;HTU21D;53114;51.138;6.008;2023-07-31T14:50:30;21.44;116.80
66312;HTU21D;53114;51.138;6.008;2023-07-31T14:52:56;21.40;116.70
66312;HTU21D;53114;51.138;6.008;2023-07-31T14:55:22;21.39;117.92
66312;HTU21D;53114;51.138;6.008;2023-07-31T14:57:48;21.33;118.98
66312;HTU21D;53114;51.138;6.008;2023-07-31T15:00:14;21.23;118.99
66312;HTU21D;53114;51.138;6.008;2023-07-31T15:02:41;21.14;118.99
66312;HTU21D;53114;51.138;6.008;2023-07-31T15:05:07;20.96;118.99
66312;HTU21D;53114;51.138;6.008;2023-07-31T15:07:34;20.84;118.99
66312;HTU21D;53114;51.138;6.008;2023-07-31T15:10:01;20.74;118.99